sensor_id;sensor_type;location;lat;lon;timestamp;P1;durP1;ratioP1;P2;durP2;ratioP2
75156;SDS011;63736;50.076;8.198;2023-07-28T00:00:01;752.80;;;175.77;;
75156;SDS011;63736;50.076;8.198;2023-07-28T00:02:26;751.75;;;175.68;;
75156;SDS011;63736;50.076;8.198;2023-07-28T00:04:52;751.60;;;175.13;;
75156;SDS011;63736;50.076;8.198;2023-07-28T00:07:17;751.10;;;174.70;;
75156;SDS011;63736;50.076;8.198;2023-07-28T00:09:43;752.33;;;175.63;;
75156;SDS011;63736;50.076;8.198;2023-07-28T00:12:08;751.80;;;175.17;;
75156;SDS011;63736;50.076;8.198;2023-07-28T00:14:33;754.67;;;177.37;;
75156;SDS011;63736;50.076;8.198;2023-07-28T00:16:58;751.93;;;175.40;;
75156;SDS011;63736;50.076;8.198;2023-07-28T00:19:24;750.30;;;175.03;;
75156;SDS011;63736;50.076;8.198;2023-07-28T00:21:49;751.60;;;175.07;;
75156;SDS011;63736;50.076;8.198;2023-07-28T00:24:15;754.38;;;177.35;;
75156;SDS011;63736;50.076;8.198;2023-07-28T00:26:41;753.20;;;176.73;;
75156;SDS011;63736;50.076;8.198;2023-07-28T00:29:07;753.03;;;176.17;;
75156;SDS011;63736;50.076;8.198;2023-07-28T00:31:32;751.83;;;175.77;;
75156;SDS011;63736;50.076;8.198;2023-07-28T00:33:58;750.67;;;175.53;;
75156;SDS011;63736;50.076;8.198;2023-07-28T00:36:23;750.65;;;175.10;;
75156;SDS011;63736;50.076;8.198;2023-07-28T00:38:48;750.00;;;174.57;;
75156;SDS011;63736;50.076;8.198;2023-07-28T00:41:14;751.37;;;175.83;;
75156;SDS011;63736;50.076;8.198;2023-07-28T00:43:39;750.87;;;175.33;;
75156;SDS011;63736;50.076;8.198;2023-07-28T00:46:04;752.13;;;176.13;;
75156;SDS011;63736;50.076;8.198;2023-07-28T00:48:30;752.37;;;176.10;;
75156;SDS011;63736;50.076;8.198;2023-07-28T00:50:55;751.03;;;174.65;;
75156;SDS011;63736;50.076;8.198;2023-07-28T00:53:21;752.63;;;176.57;;
75156;SDS011;63736;50.076;8.198;2023-07-28T00:55:48;753.58;;;176.60;;
75156;SDS011;63736;50.076;8.198;2023-07-28T00:58:13;752.10;;;175.60;;
75156;SDS011;63736;50.076;8.198;2023-07-28T01:00:39;752.53;;;176.00;;
75156;SDS011;63736;50.076;8.198;2023-07-28T01:03:04;751.70;;;175.67;;
75156;SDS011;63736;50.076;8.198;2023-07-28T01:08:27;752.15;;;175.65;;
75156;SDS011;63736;50.076;8.198;2023-07-28T01:10:58;755.13;;;177.68;;
75156;SDS011;63736;50.076;8.198;2023-07-28T01:13:23;751.37;;;175.80;;
75156;SDS011;63736;50.076;8.198;2023-07-28T01:15:48;751.33;;;175.43;;
75156;SDS011;63736;50.076;8.198;2023-07-28T01:18:13;753.53;;;177.00;;
75156;SDS011;63736;50.076;8.198;2023-07-28T01:20:40;751.00;;;174.43;;
75156;SDS011;63736;50.076;8.198;2023-07-28T01:23:08;751.33;;;175.65;;
75156;SDS011;63736;50.076;8.198;2023-07-28T01:28:34;753.33;;;175.95;;
75156;SDS011;63736;50.076;8.198;2023-07-28T01:31:04;750.33;;;175.03;;
75156;SDS011;63736;50.076;8.198;2023-07-28T01:33:31;751.28;;;175.32;;
75156;SDS011;63736;50.076;8.198;2023-07-28T01:35:57;752.03;;;176.00;;
75156;SDS011;63736;50.076;8.198;2023-07-28T01:38:23;750.58;;;174.50;;
75156;SDS011;63736;50.076;8.198;2023-07-28T01:40:49;751.50;;;176.00;;
75156;SDS011;63736;50.076;8.198;2023-07-28T01:43:14;749.20;;;174.93;;
75156;SDS011;63736;50.076;8.198;2023-07-28T01:45:40;749.27;;;174.20;;
75156;SDS011;63736;50.076;8.198;2023-07-28T01:48:05;751.77;;;175.93;;
75156;SDS011;63736;50.076;8.198;2023-07-28T01:50:30;750.50;;;175.20;;
75156;SDS011;63736;50.076;8.198;2023-07-28T01:52:56;752.10;;;176.37;;
75156;SDS011;63736;50.076;8.198;2023-07-28T01:55:21;752.80;;;176.27;;
75156;SDS011;63736;50.076;8.198;2023-07-28T01:57:50;749.50;;;174.93;;
75156;SDS011;63736;50.076;8.198;2023-07-28T02:00:19;750.47;;;175.30;;
75156;SDS011;63736;50.076;8.198;2023-07-28T02:02:44;749.95;;;175.23;;
75156;SDS011;63736;50.076;8.198;2023-07-28T02:05:09;749.43;;;175.27;;
75156;SDS011;63736;50.076;8.198;2023-07-28T02:07:35;751.00;;;176.77;;
75156;SDS011;63736;50.076;8.198;2023-07-28T02:10:00;747.50;;;174.37;;
75156;SDS011;63736;50.076;8.198;2023-07-28T02:12:25;749.90;;;175.50;;
75156;SDS011;63736;50.076;8.198;2023-07-28T02:14:50;749.23;;;175.00;;
75156;SDS011;63736;50.076;8.198;2023-07-28T02:17:16;750.17;;;175.18;;
75156;SDS011;63736;50.076;8.198;2023-07-28T02:19:41;746.83;;;173.57;;
75156;SDS011;63736;50.076;8.198;2023-07-28T02:22:07;745.97;;;174.27;;
75156;SDS011;63736;50.076;8.198;2023-07-28T02:24:32;745.40;;;174.07;;
75156;SDS011;63736;50.076;8.198;2023-07-28T02:26:57;747.63;;;174.97;;
75156;SDS011;63736;50.076;8.198;2023-07-28T02:29:22;747.27;;;175.27;;
75156;SDS011;63736;50.076;8.198;2023-07-28T02:31:48;746.13;;;173.00;;
75156;SDS011;63736;50.076;8.198;2023-07-28T02:34:13;747.20;;;173.77;;
75156;SDS011;63736;50.076;8.198;2023-07-28T02:36:38;746.50;;;174.43;;
75156;SDS011;63736;50.076;8.198;2023-07-28T02:39:04;744.20;;;172.93;;
75156;SDS011;63736;50.076;8.198;2023-07-28T02:41:29;746.97;;;174.43;;
75156;SDS011;63736;50.076;8.198;2023-07-28T02:43:54;745.47;;;173.80;;
75156;SDS011;63736;50.076;8.198;2023-07-28T02:46:20;746.10;;;174.23;;
75156;SDS011;63736;50.076;8.198;2023-07-28T02:48:45;747.75;;;175.35;;
75156;SDS011;63736;50.076;8.198;2023-07-28T02:51:10;747.73;;;173.77;;
75156;SDS011;63736;50.076;8.198;2023-07-28T02:53:36;749.03;;;174.87;;
75156;SDS011;63736;50.076;8.198;2023-07-28T02:56:01;749.43;;;175.10;;
75156;SDS011;63736;50.076;8.198;2023-07-28T02:58:26;746.90;;;173.67;;
75156;SDS011;63736;50.076;8.198;2023-07-28T03:00:51;747.37;;;174.03;;
75156;SDS011;63736;50.076;8.198;2023-07-28T03:03:17;747.40;;;174.17;;
75156;SDS011;63736;50.076;8.198;2023-07-28T03:05:42;747.90;;;173.93;;
75156;SDS011;63736;50.076;8.198;2023-07-28T03:08:07;747.57;;;174.07;;
75156;SDS011;63736;50.076;8.198;2023-07-28T03:10:33;748.57;;;174.27;;
75156;SDS011;63736;50.076;8.198;2023-07-28T03:12:58;745.87;;;173.10;;
75156;SDS011;63736;50.076;8.198;2023-07-28T03:15:23;746.17;;;173.67;;
75156;SDS011;63736;50.076;8.198;2023-07-28T03:17:49;746.37;;;174.13;;
75156;SDS011;63736;50.076;8.198;2023-07-28T03:20:15;747.53;;;175.10;;
75156;SDS011;63736;50.076;8.198;2023-07-28T03:22:41;746.80;;;175.30;;
75156;SDS011;63736;50.076;8.198;2023-07-28T03:25:06;744.37;;;173.13;;
75156;SDS011;63736;50.076;8.198;2023-07-28T03:27:32;744.47;;;173.43;;
75156;SDS011;63736;50.076;8.198;2023-07-28T03:29:57;746.20;;;175.23;;
75156;SDS011;63736;50.076;8.198;2023-07-28T03:32:22;745.57;;;173.70;;
75156;SDS011;63736;50.076;8.198;2023-07-28T03:34:47;743.80;;;173.05;;
75156;SDS011;63736;50.076;8.198;2023-07-28T03:37:13;743.47;;;172.60;;
75156;SDS011;63736;50.076;8.198;2023-07-28T03:39:38;744.70;;;174.17;;
75156;SDS011;63736;50.076;8.198;2023-07-28T03:42:04;745.10;;;173.90;;
75156;SDS011;63736;50.076;8.198;2023-07-28T03:44:29;746.88;;;175.27;;
75156;SDS011;63736;50.076;8.198;2023-07-28T03:46:54;745.10;;;174.27;;
75156;SDS011;63736;50.076;8.198;2023-07-28T03:49:20;744.67;;;173.63;;
75156;SDS011;63736;50.076;8.198;2023-07-28T03:51:45;745.37;;;174.07;;
75156;SDS011;63736;50.076;8.198;2023-07-28T03:54:10;745.13;;;173.87;;
75156;SDS011;63736;50.076;8.198;2023-07-28T03:56:36;747.90;;;175.03;;
75156;SDS011;63736;50.076;8.198;2023-07-28T03:59:01;744.80;;;172.73;;
75156;SDS011;63736;50.076;8.198;2023-07-28T04:01:26;746.73;;;174.30;;
75156;SDS011;63736;50.076;8.198;2023-07-28T04:03:51;746.90;;;174.33;;
75156;SDS011;63736;50.076;8.198;2023-07-28T04:06:17;745.80;;;173.73;;
75156;SDS011;63736;50.076;8.198;2023-07-28T04:08:42;746.87;;;173.90;;
75156;SDS011;63736;50.076;8.198;2023-07-28T04:11:08;746.70;;;174.00;;
75156;SDS011;63736;50.076;8.198;2023-07-28T04:13:33;749.30;;;175.80;;
75156;SDS011;63736;50.076;8.198;2023-07-28T04:15:59;747.67;;;174.27;;
75156;SDS011;63736;50.076;8.198;2023-07-28T04:18:25;748.22;;;174.82;;
75156;SDS011;63736;50.076;8.198;2023-07-28T04:20:50;746.03;;;173.73;;
75156;SDS011;63736;50.076;8.198;2023-07-28T04:23:16;746.93;;;173.83;;
75156;SDS011;63736;50.076;8.198;2023-07-28T04:25:41;747.77;;;173.30;;
75156;SDS011;63736;50.076;8.198;2023-07-28T04:28:06;749.07;;;174.57;;
75156;SDS011;63736;50.076;8.198;2023-07-28T04:30:31;748.90;;;174.93;;
75156;SDS011;63736;50.076;8.198;2023-07-28T04:32:57;746.57;;;173.03;;
75156;SDS011;63736;50.076;8.198;2023-07-28T04:35:22;747.87;;;173.90;;
75156;SDS011;63736;50.076;8.198;2023-07-28T04:37:47;750.63;;;175.10;;
75156;SDS011;63736;50.076;8.198;2023-07-28T04:40:13;749.77;;;174.83;;
75156;SDS011;63736;50.076;8.198;2023-07-28T04:42:38;751.45;;;175.30;;
75156;SDS011;63736;50.076;8.198;2023-07-28T04:45:04;751.17;;;174.97;;
75156;SDS011;63736;50.076;8.198;2023-07-28T04:47:30;749.30;;;174.13;;
75156;SDS011;63736;50.076;8.198;2023-07-28T04:49:55;749.63;;;173.53;;
75156;SDS011;63736;50.076;8.198;2023-07-28T04:52:20;751.37;;;174.47;;
75156;SDS011;63736;50.076;8.198;2023-07-28T04:54:45;752.27;;;175.50;;
75156;SDS011;63736;50.076;8.198;2023-07-28T04:57:11;752.77;;;175.50;;
75156;SDS011;63736;50.076;8.198;2023-07-28T04:59:37;752.25;;;174.95;;
75156;SDS011;63736;50.076;8.198;2023-07-28T05:02:02;754.83;;;175.93;;
75156;SDS011;63736;50.076;8.198;2023-07-28T05:04:28;751.67;;;174.07;;
75156;SDS011;63736;50.076;8.198;2023-07-28T05:06:53;752.90;;;175.07;;
75156;SDS011;63736;50.076;8.198;2023-07-28T05:09:18;753.00;;;175.63;;
75156;SDS011;63736;50.076;8.198;2023-07-28T05:11:43;754.30;;;175.67;;
75156;SDS011;63736;50.076;8.198;2023-07-28T05:14:09;753.05;;;174.73;;
75156;SDS011;63736;50.076;8.198;2023-07-28T05:16:34;754.90;;;175.37;;
75156;SDS011;63736;50.076;8.198;2023-07-28T05:18:59;751.53;;;173.80;;
75156;SDS011;63736;50.076;8.198;2023-07-28T05:21:25;751.53;;;174.23;;
75156;SDS011;63736;50.076;8.198;2023-07-28T05:23:50;749.97;;;173.53;;
75156;SDS011;63736;50.076;8.198;2023-07-28T05:26:16;750.53;;;173.45;;
75156;SDS011;63736;50.076;8.198;2023-07-28T05:28:41;750.17;;;173.73;;
75156;SDS011;63736;50.076;8.198;2023-07-28T05:31:07;753.40;;;175.93;;
75156;SDS011;63736;50.076;8.198;2023-07-28T05:33:32;751.45;;;174.32;;
75156;SDS011;63736;50.076;8.198;2023-07-28T05:35:58;752.13;;;174.60;;
75156;SDS011;63736;50.076;8.198;2023-07-28T05:38:27;761.60;;;176.50;;
75156;SDS011;63736;50.076;8.198;2023-07-28T05:40:59;810.13;;;188.50;;
75156;SDS011;63736;50.076;8.198;2023-07-28T05:43:26;841.17;;;197.07;;
75156;SDS011;63736;50.076;8.198;2023-07-28T05:45:52;810.70;;;188.05;;
75156;SDS011;63736;50.076;8.198;2023-07-28T05:48:17;800.17;;;185.73;;
75156;SDS011;63736;50.076;8.198;2023-07-28T05:50:43;803.20;;;186.70;;
75156;SDS011;63736;50.076;8.198;2023-07-28T05:53:08;804.20;;;186.53;;
75156;SDS011;63736;50.076;8.198;2023-07-28T05:55:33;841.35;;;195.93;;
75156;SDS011;63736;50.076;8.198;2023-07-28T05:57:59;862.73;;;201.47;;
75156;SDS011;63736;50.076;8.198;2023-07-28T06:00:24;896.27;;;209.13;;
75156;SDS011;63736;50.076;8.198;2023-07-28T06:02:49;897.00;;;209.73;;
75156;SDS011;63736;50.076;8.198;2023-07-28T06:05:14;832.27;;;194.03;;
75156;SDS011;63736;50.076;8.198;2023-07-28T06:07:40;837.50;;;194.80;;
75156;SDS011;63736;50.076;8.198;2023-07-28T06:10:06;846.33;;;196.45;;
75156;SDS011;63736;50.076;8.198;2023-07-28T06:12:32;851.97;;;197.85;;
75156;SDS011;63736;50.076;8.198;2023-07-28T06:14:57;830.97;;;193.10;;
75156;SDS011;63736;50.076;8.198;2023-07-28T06:17:23;822.93;;;190.60;;
75156;SDS011;63736;50.076;8.198;2023-07-28T06:19:48;823.50;;;191.57;;
75156;SDS011;63736;50.076;8.198;2023-07-28T06:22:13;818.50;;;190.30;;
75156;SDS011;63736;50.076;8.198;2023-07-28T06:24:38;818.40;;;191.37;;
75156;SDS011;63736;50.076;8.198;2023-07-28T06:27:04;822.07;;;189.37;;
75156;SDS011;63736;50.076;8.198;2023-07-28T06:29:33;821.92;;;190.73;;
75156;SDS011;63736;50.076;8.198;2023-07-28T06:31:58;825.05;;;192.68;;
75156;SDS011;63736;50.076;8.198;2023-07-28T06:34:23;828.27;;;192.40;;
75156;SDS011;63736;50.076;8.198;2023-07-28T06:36:49;843.40;;;195.97;;
75156;SDS011;63736;50.076;8.198;2023-07-28T06:39:14;821.00;;;191.37;;
75156;SDS011;63736;50.076;8.198;2023-07-28T06:41:39;812.57;;;189.30;;
75156;SDS011;63736;50.076;8.198;2023-07-28T06:44:05;787.93;;;183.03;;
75156;SDS011;63736;50.076;8.198;2023-07-28T06:46:30;777.22;;;181.65;;
75156;SDS011;63736;50.076;8.198;2023-07-28T06:48:56;766.73;;;178.40;;
75156;SDS011;63736;50.076;8.198;2023-07-28T06:51:21;752.43;;;175.17;;
75156;SDS011;63736;50.076;8.198;2023-07-28T06:53:46;737.57;;;171.73;;
75156;SDS011;63736;50.076;8.198;2023-07-28T06:56:11;730.67;;;169.77;;
75156;SDS011;63736;50.076;8.198;2023-07-28T06:58:37;729.17;;;170.13;;
75156;SDS011;63736;50.076;8.198;2023-07-28T07:01:02;730.50;;;170.47;;
75156;SDS011;63736;50.076;8.198;2023-07-28T07:03:27;732.90;;;170.93;;
75156;SDS011;63736;50.076;8.198;2023-07-28T07:05:52;731.50;;;168.47;;
75156;SDS011;63736;50.076;8.198;2023-07-28T07:08:18;729.60;;;168.47;;
75156;SDS011;63736;50.076;8.198;2023-07-28T07:10:49;736.57;;;170.77;;
75156;SDS011;63736;50.076;8.198;2023-07-28T07:13:15;738.13;;;170.93;;
75156;SDS011;63736;50.076;8.198;2023-07-28T07:15:40;735.15;;;170.00;;
75156;SDS011;63736;50.076;8.198;2023-07-28T07:18:07;743.17;;;170.43;;
75156;SDS011;63736;50.076;8.198;2023-07-28T07:20:35;795.15;;;183.35;;
75156;SDS011;63736;50.076;8.198;2023-07-28T07:23:02;829.28;;;191.15;;
75156;SDS011;63736;50.076;8.198;2023-07-28T07:25:27;749.33;;;172.67;;
75156;SDS011;63736;50.076;8.198;2023-07-28T07:27:52;749.33;;;172.83;;
75156;SDS011;63736;50.076;8.198;2023-07-28T07:30:18;759.47;;;176.27;;
75156;SDS011;63736;50.076;8.198;2023-07-28T07:32:43;830.27;;;192.50;;
75156;SDS011;63736;50.076;8.198;2023-07-28T07:35:08;761.50;;;176.97;;
75156;SDS011;63736;50.076;8.198;2023-07-28T07:37:34;766.63;;;179.07;;
75156;SDS011;63736;50.076;8.198;2023-07-28T07:39:59;827.10;;;191.13;;
75156;SDS011;63736;50.076;8.198;2023-07-28T07:42:28;752.15;;;175.25;;
75156;SDS011;63736;50.076;8.198;2023-07-28T07:45:05;737.97;;;170.27;;
75156;SDS011;63736;50.076;8.198;2023-07-28T07:47:32;730.67;;;168.48;;
75156;SDS011;63736;50.076;8.198;2023-07-28T07:49:57;729.33;;;170.20;;
75156;SDS011;63736;50.076;8.198;2023-07-28T07:52:23;726.28;;;168.00;;
75156;SDS011;63736;50.076;8.198;2023-07-28T07:54:48;740.07;;;170.83;;
75156;SDS011;63736;50.076;8.198;2023-07-28T07:57:13;825.00;;;192.13;;
75156;SDS011;63736;50.076;8.198;2023-07-28T07:59:38;758.10;;;177.20;;
75156;SDS011;63736;50.076;8.198;2023-07-28T08:02:04;763.33;;;177.93;;
75156;SDS011;63736;50.076;8.198;2023-07-28T08:04:30;736.80;;;173.38;;
75156;SDS011;63736;50.076;8.198;2023-07-28T08:06:56;722.40;;;169.00;;
75156;SDS011;63736;50.076;8.198;2023-07-28T08:09:21;720.93;;;168.97;;
75156;SDS011;63736;50.076;8.198;2023-07-28T08:11:47;716.07;;;167.73;;
75156;SDS011;63736;50.076;8.198;2023-07-28T08:14:12;713.20;;;168.73;;
75156;SDS011;63736;50.076;8.198;2023-07-28T08:16:37;709.60;;;166.23;;
75156;SDS011;63736;50.076;8.198;2023-07-28T08:19:03;706.30;;;164.73;;
75156;SDS011;63736;50.076;8.198;2023-07-28T08:21:29;717.43;;;167.73;;
75156;SDS011;63736;50.076;8.198;2023-07-28T08:23:56;710.40;;;165.43;;
75156;SDS011;63736;50.076;8.198;2023-07-28T08:26:23;701.20;;;163.53;;
75156;SDS011;63736;50.076;8.198;2023-07-28T08:28:48;695.10;;;162.03;;
75156;SDS011;63736;50.076;8.198;2023-07-28T08:31:14;692.03;;;162.50;;
75156;SDS011;63736;50.076;8.198;2023-07-28T08:33:39;682.70;;;159.93;;
75156;SDS011;63736;50.076;8.198;2023-07-28T08:36:04;676.77;;;159.03;;
75156;SDS011;63736;50.076;8.198;2023-07-28T08:38:29;674.27;;;157.97;;
75156;SDS011;63736;50.076;8.198;2023-07-28T08:40:56;677.53;;;159.00;;
75156;SDS011;63736;50.076;8.198;2023-07-28T08:43:23;675.53;;;158.80;;
75156;SDS011;63736;50.076;8.198;2023-07-28T08:45:48;673.50;;;158.10;;
75156;SDS011;63736;50.076;8.198;2023-07-28T08:48:14;678.77;;;159.80;;
75156;SDS011;63736;50.076;8.198;2023-07-28T08:50:39;690.93;;;163.00;;
75156;SDS011;63736;50.076;8.198;2023-07-28T08:53:05;682.10;;;160.25;;
75156;SDS011;63736;50.076;8.198;2023-07-28T08:55:30;632.93;;;151.30;;
75156;SDS011;63736;50.076;8.198;2023-07-28T08:57:55;622.43;;;149.23;;
75156;SDS011;63736;50.076;8.198;2023-07-28T09:00:20;612.50;;;148.07;;
75156;SDS011;63736;50.076;8.198;2023-07-28T09:02:48;603.88;;;147.15;;
75156;SDS011;63736;50.076;8.198;2023-07-28T09:05:18;602.67;;;145.97;;
75156;SDS011;63736;50.076;8.198;2023-07-28T09:07:44;603.80;;;145.90;;
75156;SDS011;63736;50.076;8.198;2023-07-28T09:10:10;602.80;;;146.98;;
75156;SDS011;63736;50.076;8.198;2023-07-28T09:12:37;600.28;;;146.15;;
75156;SDS011;63736;50.076;8.198;2023-07-28T09:15:10;597.97;;;145.93;;
75156;SDS011;63736;50.076;8.198;2023-07-28T09:17:41;592.43;;;144.20;;
75156;SDS011;63736;50.076;8.198;2023-07-28T09:20:07;586.75;;;144.00;;
75156;SDS011;63736;50.076;8.198;2023-07-28T09:22:38;584.90;;;143.57;;
75156;SDS011;63736;50.076;8.198;2023-07-28T09:25:11;579.33;;;142.33;;
75156;SDS011;63736;50.076;8.198;2023-07-28T09:27:40;574.13;;;141.65;;
75156;SDS011;63736;50.076;8.198;2023-07-28T09:30:13;571.90;;;142.05;;
75156;SDS011;63736;50.076;8.198;2023-07-28T09:32:43;572.65;;;141.43;;
75156;SDS011;63736;50.076;8.198;2023-07-28T09:35:13;578.03;;;141.55;;
75156;SDS011;63736;50.076;8.198;2023-07-28T09:37:43;580.03;;;141.37;;
75156;SDS011;63736;50.076;8.198;2023-07-28T09:40:12;585.38;;;143.27;;
75156;SDS011;63736;50.076;8.198;2023-07-28T09:42:40;587.50;;;144.35;;
75156;SDS011;63736;50.076;8.198;2023-07-28T09:45:06;588.60;;;143.65;;
75156;SDS011;63736;50.076;8.198;2023-07-28T09:47:33;590.97;;;144.27;;
75156;SDS011;63736;50.076;8.198;2023-07-28T09:50:00;597.77;;;145.83;;
75156;SDS011;63736;50.076;8.198;2023-07-28T09:52:29;613.10;;;148.80;;
75156;SDS011;63736;50.076;8.198;2023-07-28T09:54:59;640.92;;;155.32;;
75156;SDS011;63736;50.076;8.198;2023-07-28T09:57:28;625.78;;;152.38;;
75156;SDS011;63736;50.076;8.198;2023-07-28T09:59:58;619.97;;;150.27;;
75156;SDS011;63736;50.076;8.198;2023-07-28T10:02:27;618.47;;;150.70;;
75156;SDS011;63736;50.076;8.198;2023-07-28T10:04:52;620.65;;;150.35;;
75156;SDS011;63736;50.076;8.198;2023-07-28T10:07:19;619.97;;;151.02;;
75156;SDS011;63736;50.076;8.198;2023-07-28T10:09:45;628.47;;;152.63;;
75156;SDS011;63736;50.076;8.198;2023-07-28T10:12:17;631.95;;;154.05;;
75156;SDS011;63736;50.076;8.198;2023-07-28T10:14:44;639.00;;;162.10;;
75156;SDS011;63736;50.076;8.198;2023-07-28T10:17:14;638.17;;;158.87;;
75156;SDS011;63736;50.076;8.198;2023-07-28T10:19:41;635.93;;;157.60;;
75156;SDS011;63736;50.076;8.198;2023-07-28T10:22:09;634.78;;;153.50;;
75156;SDS011;63736;50.076;8.198;2023-07-28T10:27:36;636.22;;;154.05;;
75156;SDS011;63736;50.076;8.198;2023-07-28T10:30:04;639.15;;;154.55;;
75156;SDS011;63736;50.076;8.198;2023-07-28T10:32:41;634.27;;;152.97;;
75156;SDS011;63736;50.076;8.198;2023-07-28T10:35:09;631.05;;;151.95;;
75156;SDS011;63736;50.076;8.198;2023-07-28T10:37:48;632.13;;;152.90;;
75156;SDS011;63736;50.076;8.198;2023-07-28T10:42:51;629.05;;;151.18;;
75156;SDS011;63736;50.076;8.198;2023-07-28T10:45:17;630.85;;;152.68;;
75156;SDS011;63736;50.076;8.198;2023-07-28T10:47:43;630.45;;;151.75;;
75156;SDS011;63736;50.076;8.198;2023-07-28T10:50:09;631.73;;;151.83;;
75156;SDS011;63736;50.076;8.198;2023-07-28T10:52:38;631.58;;;153.15;;
75156;SDS011;63736;50.076;8.198;2023-07-28T10:55:04;631.40;;;151.80;;
75156;SDS011;63736;50.076;8.198;2023-07-28T10:57:30;629.27;;;151.93;;
75156;SDS011;63736;50.076;8.198;2023-07-28T10:59:59;629.43;;;152.27;;
75156;SDS011;63736;50.076;8.198;2023-07-28T11:02:26;628.53;;;151.50;;
75156;SDS011;63736;50.076;8.198;2023-07-28T11:04:52;621.75;;;149.75;;
75156;SDS011;63736;50.076;8.198;2023-07-28T11:07:17;620.67;;;149.40;;
75156;SDS011;63736;50.076;8.198;2023-07-28T11:09:43;791.57;;;186.60;;
75156;SDS011;63736;50.076;8.198;2023-07-28T11:12:08;794.38;;;189.07;;
75156;SDS011;63736;50.076;8.198;2023-07-28T11:14:35;789.28;;;186.23;;
75156;SDS011;63736;50.076;8.198;2023-07-28T11:17:00;782.80;;;184.50;;
75156;SDS011;63736;50.076;8.198;2023-07-28T11:19:27;779.30;;;184.90;;
75156;SDS011;63736;50.076;8.198;2023-07-28T11:21:52;772.60;;;182.27;;
75156;SDS011;63736;50.076;8.198;2023-07-28T11:24:18;766.65;;;182.30;;
75156;SDS011;63736;50.076;8.198;2023-07-28T11:26:45;758.83;;;179.85;;
75156;SDS011;63736;50.076;8.198;2023-07-28T11:29:11;754.20;;;178.80;;
75156;SDS011;63736;50.076;8.198;2023-07-28T11:31:36;753.03;;;178.68;;
75156;SDS011;63736;50.076;8.198;2023-07-28T11:34:02;742.33;;;176.93;;
75156;SDS011;63736;50.076;8.198;2023-07-28T11:36:28;738.00;;;176.27;;
75156;SDS011;63736;50.076;8.198;2023-07-28T11:38:56;735.58;;;174.75;;
75156;SDS011;63736;50.076;8.198;2023-07-28T11:41:23;734.15;;;175.38;;
75156;SDS011;63736;50.076;8.198;2023-07-28T11:43:49;734.10;;;174.80;;
75156;SDS011;63736;50.076;8.198;2023-07-28T11:49:14;734.83;;;174.63;;
75156;SDS011;63736;50.076;8.198;2023-07-28T11:51:48;736.90;;;175.60;;
75156;SDS011;63736;50.076;8.198;2023-07-28T11:54:16;735.75;;;174.73;;
75156;SDS011;63736;50.076;8.198;2023-07-28T11:56:45;732.63;;;174.93;;
75156;SDS011;63736;50.076;8.198;2023-07-28T11:59:11;728.47;;;173.13;;
75156;SDS011;63736;50.076;8.198;2023-07-28T12:04:22;721.58;;;172.95;;
75156;SDS011;63736;50.076;8.198;2023-07-28T12:09:26;713.38;;;168.95;;
75156;SDS011;63736;50.076;8.198;2023-07-28T12:11:51;712.20;;;169.23;;
75156;SDS011;63736;50.076;8.198;2023-07-28T12:14:29;710.67;;;169.33;;
75156;SDS011;63736;50.076;8.198;2023-07-28T12:16:55;709.35;;;168.88;;
75156;SDS011;63736;50.076;8.198;2023-07-28T12:19:21;704.73;;;167.50;;
75156;SDS011;63736;50.076;8.198;2023-07-28T12:21:46;704.33;;;166.87;;
75156;SDS011;63736;50.076;8.198;2023-07-28T12:24:11;707.10;;;167.90;;
75156;SDS011;63736;50.076;8.198;2023-07-28T12:26:37;710.90;;;169.60;;
75156;SDS011;63736;50.076;8.198;2023-07-28T12:29:02;715.40;;;169.30;;
75156;SDS011;63736;50.076;8.198;2023-07-28T12:31:28;721.10;;;170.57;;
75156;SDS011;63736;50.076;8.198;2023-07-28T12:33:53;727.90;;;172.33;;
75156;SDS011;63736;50.076;8.198;2023-07-28T12:36:18;730.90;;;172.67;;
75156;SDS011;63736;50.076;8.198;2023-07-28T12:38:43;736.17;;;174.67;;
75156;SDS011;63736;50.076;8.198;2023-07-28T12:41:09;738.67;;;176.27;;
75156;SDS011;63736;50.076;8.198;2023-07-28T12:43:34;744.17;;;175.07;;
75156;SDS011;63736;50.076;8.198;2023-07-28T12:45:59;861.83;;;201.90;;
75156;SDS011;63736;50.076;8.198;2023-07-28T12:48:24;715.53;;;166.60;;
75156;SDS011;63736;50.076;8.198;2023-07-28T12:50:50;771.57;;;179.67;;
75156;SDS011;63736;50.076;8.198;2023-07-28T12:53:16;818.03;;;191.77;;
75156;SDS011;63736;50.076;8.198;2023-07-28T12:55:41;858.33;;;201.95;;
75156;SDS011;63736;50.076;8.198;2023-07-28T12:58:06;809.17;;;189.73;;
75156;SDS011;63736;50.076;8.198;2023-07-28T13:00:32;798.03;;;187.30;;
75156;SDS011;63736;50.076;8.198;2023-07-28T13:02:57;787.80;;;184.20;;
75156;SDS011;63736;50.076;8.198;2023-07-28T13:05:22;788.47;;;185.50;;
75156;SDS011;63736;50.076;8.198;2023-07-28T13:07:48;780.77;;;181.67;;
75156;SDS011;63736;50.076;8.198;2023-07-28T13:10:13;772.40;;;180.37;;
75156;SDS011;63736;50.076;8.198;2023-07-28T13:12:38;765.30;;;178.87;;
75156;SDS011;63736;50.076;8.198;2023-07-28T13:15:04;759.30;;;177.93;;
75156;SDS011;63736;50.076;8.198;2023-07-28T13:17:30;758.97;;;179.07;;
75156;SDS011;63736;50.076;8.198;2023-07-28T13:19:56;752.40;;;176.43;;
75156;SDS011;63736;50.076;8.198;2023-07-28T13:22:24;748.17;;;176.48;;
75156;SDS011;63736;50.076;8.198;2023-07-28T13:24:51;742.53;;;174.20;;
75156;SDS011;63736;50.076;8.198;2023-07-28T13:27:17;736.13;;;172.83;;
75156;SDS011;63736;50.076;8.198;2023-07-28T13:29:42;734.23;;;171.53;;
75156;SDS011;63736;50.076;8.198;2023-07-28T13:35:02;733.27;;;172.53;;
75156;SDS011;63736;50.076;8.198;2023-07-28T13:37:27;728.38;;;171.07;;
75156;SDS011;63736;50.076;8.198;2023-07-28T13:39:52;725.77;;;169.97;;
75156;SDS011;63736;50.076;8.198;2023-07-28T13:42:18;724.37;;;170.23;;
75156;SDS011;63736;50.076;8.198;2023-07-28T13:44:43;723.63;;;169.83;;
75156;SDS011;63736;50.076;8.198;2023-07-28T13:47:08;723.23;;;170.67;;
75156;SDS011;63736;50.076;8.198;2023-07-28T13:49:34;722.03;;;169.53;;
75156;SDS011;63736;50.076;8.198;2023-07-28T13:52:01;723.03;;;170.00;;
75156;SDS011;63736;50.076;8.198;2023-07-28T13:54:27;725.28;;;171.18;;
75156;SDS011;63736;50.076;8.198;2023-07-28T13:56:53;728.37;;;171.10;;
75156;SDS011;63736;50.076;8.198;2023-07-28T13:59:18;729.30;;;172.43;;
75156;SDS011;63736;50.076;8.198;2023-07-28T14:01:43;730.07;;;172.00;;
75156;SDS011;63736;50.076;8.198;2023-07-28T14:04:09;729.33;;;171.47;;
75156;SDS011;63736;50.076;8.198;2023-07-28T14:06:34;732.87;;;170.77;;
75156;SDS011;63736;50.076;8.198;2023-07-28T14:08:59;733.92;;;171.18;;
75156;SDS011;63736;50.076;8.198;2023-07-28T14:11:25;741.83;;;173.30;;